sensor_id;sensor_type;location;lat;lon;timestamp;pressure;altitude;pressure_sealevel;temperature;humidity
35989;BME280;22064;42.672;23.282;2023-02-08T00:01:53;96173.72;;;-6.28;100.00
35989;BME280;22064;42.672;23.282;2023-02-08T00:04:18;96176.47;;;-6.31;100.00
35989;BME280;22064;42.672;23.282;2023-02-08T00:06:44;96171.78;;;-6.37;100.00
35989;BME280;22064;42.672;23.282;2023-02-08T00:09:10;96176.97;;;-6.25;100.00
35989;BME280;22064;42.672;23.282;2023-02-08T00:11:36;96187.13;;;-6.25;100.00
35989;BME280;22064;42.672;23.282;2023-02-08T00:14:02;96183.88;;;-6.28;100.00
35989;BME280;22064;42.672;23.282;2023-02-08T00:16:28;96188.41;;;-6.20;100.00
35989;BME280;22064;42.672;23.282;2023-02-08T00:18:54;96197.88;;;-6.22;100.00
35989;BME280;22064;42.672;23.282;2023-02-08T00:21:21;96192.19;;;-6.13;100.00
35989;BME280;22064;42.672;23.282;2023-02-08T00:23:47;96200.28;;;-6.08;100.00
35989;BME280;22064;42.672;23.282;2023-02-08T00:26:14;96188.34;;;-6.06;100.00
35989;BME280;22064;42.672;23.282;2023-02-08T00:28:41;96197.88;;;-6.09;100.00
35989;BME280;22064;42.672;23.282;2023-02-08T00:31:07;96192.91;;;-5.98;100.00
35989;BME280;22064;42.672;23.282;2023-02-08T00:33:33;96203.09;;;-5.87;100.00
35989;BME280;22064;42.672;23.282;2023-02-08T00:36:04;96208.38;;;-5.90;100.00
35989;BME280;22064;42.672;23.282;2023-02-08T00:38:31;96204.44;;;-5.81;100.00
35989;BME280;22064;42.672;23.282;2023-02-08T00:40:57;96214.38;;;-5.78;100.00
35989;BME280;22064;42.672;23.282;2023-02-08T00:43:23;96217.50;;;-5.74;100.00
35989;BME280;22064;42.672;23.282;2023-02-08T00:45:56;96220.97;;;-5.63;100.00
35989;BME280;22064;42.672;23.282;2023-02-08T00:48:24;96218.31;;;-5.87;100.00
35989;BME280;22064;42.672;23.282;2023-02-08T00:51:00;96211.97;;;-6.05;100.00
35989;BME280;22064;42.672;23.282;2023-02-08T00:53:27;96218.69;;;-6.04;100.00
35989;BME280;22064;42.672;23.282;2023-02-08T00:55:54;96217.25;;;-6.08;100.00
35989;BME280;22064;42.672;23.282;2023-02-08T00:58:20;96209.53;;;-6.07;100.00
35989;BME280;22064;42.672;23.282;2023-02-08T01:00:50;96214.63;;;-6.07;100.00
35989;BME280;22064;42.672;23.282;2023-02-08T01:03:16;96226.28;;;-6.04;100.00
35989;BME280;22064;42.672;23.282;2023-02-08T01:05:42;96225.78;;;-6.09;100.00
35989;BME280;22064;42.672;23.282;2023-02-08T01:08:08;96233.19;;;-5.93;100.00
35989;BME280;22064;42.672;23.282;2023-02-08T01:10:34;96223.84;;;-6.06;100.00
35989;BME280;22064;42.672;23.282;2023-02-08T01:13:00;96217.84;;;-6.05;100.00
35989;BME280;22064;42.672;23.282;2023-02-08T01:15:26;96218.69;;;-6.04;100.00
35989;BME280;22064;42.672;23.282;2023-02-08T01:17:53;96219.47;;;-6.16;100.00
35989;BME280;22064;42.672;23.282;2023-02-08T01:20:19;96218.03;;;-6.20;100.00
35989;BME280;22064;42.672;23.282;2023-02-08T01:22:45;96222.22;;;-6.07;100.00
35989;BME280;22064;42.672;23.282;2023-02-08T01:25:11;96219.69;;;-6.07;100.00
35989;BME280;22064;42.672;23.282;2023-02-08T01:27:37;96221.50;;;-6.09;100.00
35989;BME280;22064;42.672;23.282;2023-02-08T01:30:04;96220.09;;;-6.13;100.00
35989;BME280;22064;42.672;23.282;2023-02-08T01:32:30;96219.88;;;-5.97;100.00
35989;BME280;22064;42.672;23.282;2023-02-08T01:34:55;96217.03;;;-6.05;100.00
35989;BME280;22064;42.672;23.282;2023-02-08T01:37:21;96216.94;;;-6.03;100.00
35989;BME280;22064;42.672;23.282;2023-02-08T01:39:47;96210.75;;;-5.99;100.00
35989;BME280;22064;42.672;23.282;2023-02-08T01:42:14;96218.28;;;-5.98;100.00
35989;BME280;22064;42.672;23.282;2023-02-08T01:45:23;96219.25;;;-5.75;100.00
35989;BME280;22064;42.672;23.282;2023-02-08T01:47:52;96223.16;;;-5.95;100.00
35989;BME280;22064;42.672;23.282;2023-02-08T01:50:22;96222.63;;;-6.00;100.00
35989;BME280;22064;42.672;23.282;2023-02-08T01:52:49;96218.03;;;-6.08;100.00
35989;BME280;22064;42.672;23.282;2023-02-08T01:55:20;96205.88;;;-6.15;100.00
35989;BME280;22064;42.672;23.282;2023-02-08T01:57:51;96229.09;;;-6.21;100.00
35989;BME280;22064;42.672;23.282;2023-02-08T02:00:19;96231.63;;;-6.21;100.00
35989;BME280;22064;42.672;23.282;2023-02-08T02:02:48;96229.63;;;-6.16;100.00
35989;BME280;22064;42.672;23.282;2023-02-08T02:05:24;96236.72;;;-6.21;100.00
35989;BME280;22064;42.672;23.282;2023-02-08T02:07:52;96236.72;;;-6.21;100.00
35989;BME280;22064;42.672;23.282;2023-02-08T02:10:27;96235.78;;;-6.20;100.00
35989;BME280;22064;42.672;23.282;2023-02-08T02:12:54;96230.72;;;-6.20;100.00
35989;BME280;22064;42.672;23.282;2023-02-08T02:15:21;96229.44;;;-6.00;100.00
35989;BME280;22064;42.672;23.282;2023-02-08T02:17:47;96235.59;;;-6.17;100.00
35989;BME280;22064;42.672;23.282;2023-02-08T02:40:09;96265.09;;;-6.29;100.00
35989;BME280;22064;42.672;23.282;2023-02-08T02:42:58;96264.47;;;-6.33;100.00
35989;BME280;22064;42.672;23.282;2023-02-08T02:45:58;96264.56;;;-6.34;100.00
35989;BME280;22064;42.672;23.282;2023-02-08T02:54:17;96270.31;;;-6.45;100.00
35989;BME280;22064;42.672;23.282;2023-02-08T02:56:46;96279.38;;;-6.41;100.00
35989;BME280;22064;42.672;23.282;2023-02-08T02:59:14;96268.09;;;-6.37;100.00
35989;BME280;22064;42.672;23.282;2023-02-08T03:01:45;96267.97;;;-6.48;100.00
35989;BME280;22064;42.672;23.282;2023-02-08T03:04:46;96270.41;;;-6.46;100.00
35989;BME280;22064;42.672;23.282;2023-02-08T03:12:50;96278.63;;;-6.43;100.00
35989;BME280;22064;42.672;23.282;2023-02-08T03:23:30;96275.69;;;-6.49;100.00
35989;BME280;22064;42.672;23.282;2023-02-08T03:26:10;96278.25;;;-6.37;100.00
35989;BME280;22064;42.672;23.282;2023-02-08T03:28:59;96265.88;;;-6.41;100.00
35989;BME280;22064;42.672;23.282;2023-02-08T03:31:44;96259.09;;;-6.41;100.00
35989;BME280;22064;42.672;23.282;2023-02-08T03:34:13;96266.06;;;-6.44;100.00
35989;BME280;22064;42.672;23.282;2023-02-08T03:39:13;96251.25;;;-6.51;100.00
35989;BME280;22064;42.672;23.282;2023-02-08T03:41:43;96261.81;;;-6.44;100.00
35989;BME280;22064;42.672;23.282;2023-02-08T03:44:15;96273.53;;;-6.56;100.00
35989;BME280;22064;42.672;23.282;2023-02-08T03:46:51;96265.94;;;-6.56;100.00
35989;BME280;22064;42.672;23.282;2023-02-08T03:49:21;96270.91;;;-6.54;100.00
35989;BME280;22064;42.672;23.282;2023-02-08T03:51:50;96273.88;;;-6.47;100.00
35989;BME280;22064;42.672;23.282;2023-02-08T03:54:20;96270.09;;;-6.55;100.00
35989;BME280;22064;42.672;23.282;2023-02-08T03:57:23;96273.94;;;-6.49;100.00
35989;BME280;22064;42.672;23.282;2023-02-08T04:00:12;96278.09;;;-6.48;100.00
35989;BME280;22064;42.672;23.282;2023-02-08T04:03:01;96272.53;;;-6.53;100.00
35989;BME280;22064;42.672;23.282;2023-02-08T04:05:30;96279.72;;;-6.60;100.00
35989;BME280;22064;42.672;23.282;2023-02-08T04:07:56;96274.69;;;-6.47;100.00
35989;BME280;22064;42.672;23.282;2023-02-08T04:10:23;96280.59;;;-6.61;100.00
35989;BME280;22064;42.672;23.282;2023-02-08T04:12:49;96269.47;;;-6.58;100.00
35989;BME280;22064;42.672;23.282;2023-02-08T04:15:16;96287.94;;;-6.56;100.00
35989;BME280;22064;42.672;23.282;2023-02-08T04:17:42;96289.84;;;-6.60;100.00
35989;BME280;22064;42.672;23.282;2023-02-08T04:20:08;96288.84;;;-6.57;100.00
35989;BME280;22064;42.672;23.282;2023-02-08T04:22:34;96296.97;;;-6.52;100.00
35989;BME280;22064;42.672;23.282;2023-02-08T04:25:00;96292.81;;;-6.53;100.00
35989;BME280;22064;42.672;23.282;2023-02-08T04:27:26;96293.72;;;-6.54;100.00
35989;BME280;22064;42.672;23.282;2023-02-08T04:29:52;96290.28;;;-6.53;100.00
35989;BME280;22064;42.672;23.282;2023-02-08T04:32:19;96293.25;;;-6.61;100.00
35989;BME280;22064;42.672;23.282;2023-02-08T04:34:45;96295.91;;;-6.62;100.00
35989;BME280;22064;42.672;23.282;2023-02-08T04:37:11;96303.44;;;-6.48;100.00
35989;BME280;22064;42.672;23.282;2023-02-08T04:39:37;96298.06;;;-6.56;100.00
35989;BME280;22064;42.672;23.282;2023-02-08T04:42:03;96299.06;;;-6.59;100.00
35989;BME280;22064;42.672;23.282;2023-02-08T04:44:29;96304.38;;;-6.49;100.00
35989;BME280;22064;42.672;23.282;2023-02-08T04:46:58;96305.75;;;-6.58;100.00
35989;BME280;22064;42.672;23.282;2023-02-08T04:49:24;96297.69;;;-6.50;100.00
35989;BME280;22064;42.672;23.282;2023-02-08T04:51:50;96304.69;;;-6.68;100.00
35989;BME280;22064;42.672;23.282;2023-02-08T04:54:16;96303.34;;;-6.74;100.00
35989;BME280;22064;42.672;23.282;2023-02-08T04:56:42;96310.88;;;-6.72;100.00
35989;BME280;22064;42.672;23.282;2023-02-08T04:59:08;96316.22;;;-6.77;100.00
35989;BME280;22064;42.672;23.282;2023-02-08T05:01:34;96314.59;;;-6.78;100.00
35989;BME280;22064;42.672;23.282;2023-02-08T05:04:00;96318.03;;;-6.79;100.00
35989;BME280;22064;42.672;23.282;2023-02-08T05:06:26;96330.34;;;-6.72;100.00
35989;BME280;22064;42.672;23.282;2023-02-08T05:08:52;96342.69;;;-6.68;100.00
35989;BME280;22064;42.672;23.282;2023-02-08T05:11:20;96341.91;;;-6.68;100.00
35989;BME280;22064;42.672;23.282;2023-02-08T05:13:46;96352.38;;;-6.60;100.00
35989;BME280;22064;42.672;23.282;2023-02-08T05:16:12;96354.13;;;-6.48;100.00
35989;BME280;22064;42.672;23.282;2023-02-08T05:18:38;96349.56;;;-6.56;100.00
35989;BME280;22064;42.672;23.282;2023-02-08T05:21:04;96343.63;;;-6.69;100.00
35989;BME280;22064;42.672;23.282;2023-02-08T05:23:30;96351.47;;;-6.59;100.00
35989;BME280;22064;42.672;23.282;2023-02-08T05:25:57;96351.91;;;-6.67;100.00
35989;BME280;22064;42.672;23.282;2023-02-08T05:28:23;96346.03;;;-6.67;100.00
35989;BME280;22064;42.672;23.282;2023-02-08T05:30:50;96359.28;;;-6.77;100.00
35989;BME280;22064;42.672;23.282;2023-02-08T05:33:16;96359.63;;;-6.83;100.00
35989;BME280;22064;42.672;23.282;2023-02-08T05:35:44;96367.84;;;-6.79;100.00
35989;BME280;22064;42.672;23.282;2023-02-08T05:38:10;96364.19;;;-6.88;100.00
35989;BME280;22064;42.672;23.282;2023-02-08T05:40:36;96368.34;;;-6.87;100.00
35989;BME280;22064;42.672;23.282;2023-02-08T05:43:02;96371.41;;;-6.82;100.00
35989;BME280;22064;42.672;23.282;2023-02-08T05:45:28;96369.81;;;-6.97;100.00
35989;BME280;22064;42.672;23.282;2023-02-08T05:47:54;96375.50;;;-6.93;100.00
35989;BME280;22064;42.672;23.282;2023-02-08T05:50:20;96380.28;;;-6.89;100.00
35989;BME280;22064;42.672;23.282;2023-02-08T05:52:49;96366.34;;;-6.96;100.00
35989;BME280;22064;42.672;23.282;2023-02-08T05:55:15;96369.50;;;-6.92;100.00
35989;BME280;22064;42.672;23.282;2023-02-08T05:57:41;96382.09;;;-6.91;100.00
35989;BME280;22064;42.672;23.282;2023-02-08T06:00:07;96385.97;;;-6.85;100.00
35989;BME280;22064;42.672;23.282;2023-02-08T06:02:41;96384.16;;;-6.83;100.00
35989;BME280;22064;42.672;23.282;2023-02-08T06:05:07;96376.19;;;-6.77;100.00
35989;BME280;22064;42.672;23.282;2023-02-08T06:07:33;96375.66;;;-6.82;100.00
35989;BME280;22064;42.672;23.282;2023-02-08T06:09:59;96379.72;;;-6.80;100.00
35989;BME280;22064;42.672;23.282;2023-02-08T06:12:25;96373.41;;;-6.72;100.00
35989;BME280;22064;42.672;23.282;2023-02-08T06:14:50;96376.69;;;-6.58;100.00
35989;BME280;22064;42.672;23.282;2023-02-08T06:17:16;96382.41;;;-6.54;100.00
35989;BME280;22064;42.672;23.282;2023-02-08T06:19:42;96382.31;;;-6.67;100.00
35989;BME280;22064;42.672;23.282;2023-02-08T06:22:08;96382.06;;;-6.62;100.00
35989;BME280;22064;42.672;23.282;2023-02-08T06:24:34;96390.47;;;-6.62;100.00
35989;BME280;22064;42.672;23.282;2023-02-08T06:27:00;96394.06;;;-6.52;100.00
35989;BME280;22064;42.672;23.282;2023-02-08T06:29:26;96393.41;;;-6.41;100.00
35989;BME280;22064;42.672;23.282;2023-02-08T06:31:52;96393.59;;;-6.44;100.00
35989;BME280;22064;42.672;23.282;2023-02-08T06:34:19;96388.91;;;-6.50;100.00
35989;BME280;22064;42.672;23.282;2023-02-08T06:36:45;96394.34;;;-6.56;100.00
35989;BME280;22064;42.672;23.282;2023-02-08T06:39:11;96392.69;;;-6.43;100.00
35989;BME280;22064;42.672;23.282;2023-02-08T06:41:36;96389.22;;;-6.28;100.00
35989;BME280;22064;42.672;23.282;2023-02-08T06:44:03;96397.38;;;-6.37;100.00
35989;BME280;22064;42.672;23.282;2023-02-08T06:46:28;96397.69;;;-6.41;100.00
35989;BME280;22064;42.672;23.282;2023-02-08T06:48:55;96399.75;;;-6.48;100.00
35989;BME280;22064;42.672;23.282;2023-02-08T06:51:22;96413.25;;;-6.47;100.00
35989;BME280;22064;42.672;23.282;2023-02-08T06:53:48;96409.19;;;-6.50;100.00
35989;BME280;22064;42.672;23.282;2023-02-08T06:56:14;96408.00;;;-6.44;100.00
35989;BME280;22064;42.672;23.282;2023-02-08T06:58:40;96410.97;;;-6.38;100.00
35989;BME280;22064;42.672;23.282;2023-02-08T07:01:05;96410.06;;;-6.37;100.00
35989;BME280;22064;42.672;23.282;2023-02-08T07:03:31;96401.09;;;-6.42;100.00
35989;BME280;22064;42.672;23.282;2023-02-08T07:05:58;96416.22;;;-6.41;100.00
35989;BME280;22064;42.672;23.282;2023-02-08T07:08:24;96412.34;;;-6.46;100.00
35989;BME280;22064;42.672;23.282;2023-02-08T07:10:50;96420.31;;;-6.53;100.00
35989;BME280;22064;42.672;23.282;2023-02-08T07:13:16;96417.97;;;-6.56;100.00
35989;BME280;22064;42.672;23.282;2023-02-08T07:15:41;96418.50;;;-6.51;100.00
35989;BME280;22064;42.672;23.282;2023-02-08T07:18:07;96418.06;;;-6.57;100.00
35989;BME280;22064;42.672;23.282;2023-02-08T07:20:33;96416.16;;;-6.68;100.00
35989;BME280;22064;42.672;23.282;2023-02-08T07:22:58;96419.69;;;-6.56;100.00
35989;BME280;22064;42.672;23.282;2023-02-08T07:25:25;96434.16;;;-6.44;100.00
35989;BME280;22064;42.672;23.282;2023-02-08T07:27:52;96441.09;;;-6.33;100.00
35989;BME280;22064;42.672;23.282;2023-02-08T07:30:18;96434.56;;;-6.23;100.00
35989;BME280;22064;42.672;23.282;2023-02-08T07:32:44;96445.78;;;-6.13;100.00
35989;BME280;22064;42.672;23.282;2023-02-08T07:35:10;96444.66;;;-6.09;100.00
35989;BME280;22064;42.672;23.282;2023-02-08T07:37:35;96447.88;;;-5.80;100.00
35989;BME280;22064;42.672;23.282;2023-02-08T07:40:01;96450.91;;;-5.60;100.00
35989;BME280;22064;42.672;23.282;2023-02-08T07:42:27;96457.22;;;-5.40;100.00
35989;BME280;22064;42.672;23.282;2023-02-08T07:45:13;96453.16;;;-5.43;100.00
35989;BME280;22064;42.672;23.282;2023-02-08T07:47:39;96438.75;;;-5.29;100.00
35989;BME280;22064;42.672;23.282;2023-02-08T07:50:05;96453.28;;;-4.80;100.00
35989;BME280;22064;42.672;23.282;2023-02-08T07:52:31;96451.75;;;-4.96;100.00
35989;BME280;22064;42.672;23.282;2023-02-08T07:54:57;96462.31;;;-4.51;100.00
35989;BME280;22064;42.672;23.282;2023-02-08T07:57:22;96453.50;;;-4.21;100.00
35989;BME280;22064;42.672;23.282;2023-02-08T07:59:48;96452.47;;;-4.19;100.00
35989;BME280;22064;42.672;23.282;2023-02-08T08:02:14;96457.31;;;-4.39;100.00
35989;BME280;22064;42.672;23.282;2023-02-08T08:04:41;96456.34;;;-4.13;100.00
35989;BME280;22064;42.672;23.282;2023-02-08T08:07:07;96453.44;;;-4.08;100.00
35989;BME280;22064;42.672;23.282;2023-02-08T08:09:32;96447.31;;;-4.79;100.00
35989;BME280;22064;42.672;23.282;2023-02-08T08:11:58;96438.75;;;-5.29;100.00
35989;BME280;22064;42.672;23.282;2023-02-08T08:14:24;96450.94;;;-5.74;100.00
35989;BME280;22064;42.672;23.282;2023-02-08T08:16:50;96449.09;;;-5.85;100.00
35989;BME280;22064;42.672;23.282;2023-02-08T08:19:15;96435.84;;;-5.76;100.00
35989;BME280;22064;42.672;23.282;2023-02-08T08:21:41;96442.16;;;-5.56;100.00
35989;BME280;22064;42.672;23.282;2023-02-08T08:24:07;96440.59;;;-5.19;100.00
35989;BME280;22064;42.672;23.282;2023-02-08T08:26:33;96437.97;;;-4.92;100.00
35989;BME280;22064;42.672;23.282;2023-02-08T08:28:59;96448.13;;;-4.79;100.00
35989;BME280;22064;42.672;23.282;2023-02-08T08:31:27;96449.44;;;-4.73;100.00
35989;BME280;22064;42.672;23.282;2023-02-08T08:33:55;96448.72;;;-4.75;100.00
35989;BME280;22064;42.672;23.282;2023-02-08T08:36:20;96444.81;;;-4.55;100.00
35989;BME280;22064;42.672;23.282;2023-02-08T08:38:46;96439.06;;;-4.57;100.00
35989;BME280;22064;42.672;23.282;2023-02-08T08:41:15;96457.94;;;-4.49;100.00
35989;BME280;22064;42.672;23.282;2023-02-08T08:43:46;96461.31;;;-4.61;100.00
35989;BME280;22064;42.672;23.282;2023-02-08T08:46:12;96456.63;;;-4.54;100.00
35989;BME280;22064;42.672;23.282;2023-02-08T08:48:39;96453.25;;;-4.55;100.00
35989;BME280;22064;42.672;23.282;2023-02-08T08:51:06;96460.28;;;-4.58;100.00
35989;BME280;22064;42.672;23.282;2023-02-08T08:53:32;96456.63;;;-4.54;100.00
35989;BME280;22064;42.672;23.282;2023-02-08T08:56:00;96463.22;;;-4.39;100.00
35989;BME280;22064;42.672;23.282;2023-02-08T08:58:25;96458.19;;;-4.28;100.00
35989;BME280;22064;42.672;23.282;2023-02-08T09:00:51;96469.69;;;-3.85;100.00
35989;BME280;22064;42.672;23.282;2023-02-08T09:03:18;96457.84;;;-3.86;100.00
35989;BME280;22064;42.672;23.282;2023-02-08T09:05:45;96462.91;;;-3.74;100.00
35989;BME280;22064;42.672;23.282;2023-02-08T09:08:11;96460.38;;;-3.38;100.00
35989;BME280;22064;42.672;23.282;2023-02-08T09:10:38;96463.13;;;-3.17;100.00
35989;BME280;22064;42.672;23.282;2023-02-08T09:13:04;96471.75;;;-2.85;100.00
35989;BME280;22064;42.672;23.282;2023-02-08T09:15:30;96472.31;;;-2.92;100.00
35989;BME280;22064;42.672;23.282;2023-02-08T09:17:55;96476.03;;;-2.85;100.00
35989;BME280;22064;42.672;23.282;2023-02-08T09:20:21;96476.72;;;-2.72;100.00
35989;BME280;22064;42.672;23.282;2023-02-08T09:22:48;96475.81;;;-2.82;100.00
35989;BME280;22064;42.672;23.282;2023-02-08T09:25:14;96479.06;;;-2.80;100.00
35989;BME280;22064;42.672;23.282;2023-02-08T09:27:40;96478.00;;;-2.78;100.00
35989;BME280;22064;42.672;23.282;2023-02-08T09:30:07;96482.88;;;-2.63;100.00
35989;BME280;22064;42.672;23.282;2023-02-08T09:32:33;96476.84;;;-2.62;100.00
35989;BME280;22064;42.672;23.282;2023-02-08T09:35:00;96478.59;;;-2.63;100.00
35989;BME280;22064;42.672;23.282;2023-02-08T09:37:27;96485.66;;;-2.66;100.00
35989;BME280;22064;42.672;23.282;2023-02-08T09:39:53;96487.75;;;-2.60;100.00
35989;BME280;22064;42.672;23.282;2023-02-08T09:42:27;96474.19;;;-2.49;100.00
35989;BME280;22064;42.672;23.282;2023-02-08T09:50:48;96473.50;;;-2.18;97.97
35989;BME280;22064;42.672;23.282;2023-02-08T09:53:41;96474.50;;;-1.98;96.17
35989;BME280;22064;42.672;23.282;2023-02-08T09:56:15;96462.53;;;-1.86;90.29
35989;BME280;22064;42.672;23.282;2023-02-08T09:58:46;96468.25;;;-1.61;87.31
35989;BME280;22064;42.672;23.282;2023-02-08T10:03:42;96464.06;;;-1.63;83.47
35989;BME280;22064;42.672;23.282;2023-02-08T10:06:15;96463.16;;;-1.61;82.20
35989;BME280;22064;42.672;23.282;2023-02-08T10:08:42;96460.47;;;-1.92;81.13
35989;BME280;22064;42.672;23.282;2023-02-08T10:22:40;96456.41;;;-1.63;71.48
35989;BME280;22064;42.672;23.282;2023-02-08T10:31:04;96454.69;;;-1.09;74.40
35989;BME280;22064;42.672;23.282;2023-02-08T10:36:26;96451.28;;;-0.27;69.40
35989;BME280;22064;42.672;23.282;2023-02-08T10:38:54;96457.38;;;-0.18;66.71
35989;BME280;22064;42.672;23.282;2023-02-08T10:41:25;96454.03;;;-0.09;65.14
35989;BME280;22064;42.672;23.282;2023-02-08T10:46:37;96450.13;;;-0.04;63.36
35989;BME280;22064;42.672;23.282;2023-02-08T10:51:41;96446.03;;;0.54;60.34
35989;BME280;22064;42.672;23.282;2023-02-08T10:54:13;96456.13;;;0.55;61.41
35989;BME280;22064;42.672;23.282;2023-02-08T10:56:53;96458.44;;;0.49;59.29
35989;BME280;22064;42.672;23.282;2023-02-08T10:59:29;96457.63;;;0.48;59.68
35989;BME280;22064;42.672;23.282;2023-02-08T11:01:57;96462.47;;;0.22;60.60
35989;BME280;22064;42.672;23.282;2023-02-08T11:04:23;96458.94;;;0.13;60.05
35989;BME280;22064;42.672;23.282;2023-02-08T11:06:50;96458.09;;;0.03;60.54
35989;BME280;22064;42.672;23.282;2023-02-08T11:09:30;96462.13;;;-0.04;61.13
35989;BME280;22064;42.672;23.282;2023-02-08T11:11:58;96463.69;;;-0.22;63.20
35989;BME280;22064;42.672;23.282;2023-02-08T11:14:40;96473.03;;;-0.12;62.61
35989;BME280;22064;42.672;23.282;2023-02-08T11:17:30;96456.13;;;-0.34;64.76
35989;BME280;22064;42.672;23.282;2023-02-08T11:19:58;96457.75;;;-0.84;66.48
35989;BME280;22064;42.672;23.282;2023-02-08T11:22:26;96474.88;;;-1.06;69.92
35989;BME280;22064;42.672;23.282;2023-02-08T11:25:01;96468.38;;;-1.31;73.57
35989;BME280;22064;42.672;23.282;2023-02-08T11:32:34;96465.25;;;-1.67;85.35
35989;BME280;22064;42.672;23.282;2023-02-08T11:37:51;96471.00;;;-1.86;89.39
35989;BME280;22064;42.672;23.282;2023-02-08T11:40:22;96465.03;;;-1.75;90.00
35989;BME280;22064;42.672;23.282;2023-02-08T11:42:50;96471.22;;;-1.77;89.51
35989;BME280;22064;42.672;23.282;2023-02-08T11:45:23;96471.09;;;-1.76;93.87
35989;BME280;22064;42.672;23.282;2023-02-08T11:47:50;96462.94;;;-1.70;92.99
35989;BME280;22064;42.672;23.282;2023-02-08T11:50:30;96470.69;;;-1.60;89.91
35989;BME280;22064;42.672;23.282;2023-02-08T11:52:58;96469.34;;;-1.75;87.42
35989;BME280;22064;42.672;23.282;2023-02-08T11:55:28;96467.94;;;-1.68;90.05
35989;BME280;22064;42.672;23.282;2023-02-08T12:00:31;96471.66;;;-1.72;87.20
35989;BME280;22064;42.672;23.282;2023-02-08T12:05:56;96470.13;;;-1.64;87.81
35989;BME280;22064;42.672;23.282;2023-02-08T12:17:01;96467.34;;;-1.72;85.80
35989;BME280;22064;42.672;23.282;2023-02-08T12:19:51;96476.34;;;-1.56;86.44
35989;BME280;22064;42.672;23.282;2023-02-08T12:22:25;96461.56;;;-1.74;85.58
35989;BME280;22064;42.672;23.282;2023-02-08T12:25:23;96469.34;;;-1.75;86.40
35989;BME280;22064;42.672;23.282;2023-02-08T12:48:08;96467.69;;;-2.08;82.95
35989;BME280;22064;42.672;23.282;2023-02-08T12:50:52;96461.75;;;-2.09;79.57
35989;BME280;22064;42.672;23.282;2023-02-08T12:53:26;96470.19;;;-1.86;75.93
35989;BME280;22064;42.672;23.282;2023-02-08T12:55:58;96468.13;;;-2.03;69.68
35989;BME280;22064;42.672;23.282;2023-02-08T12:58:32;96474.25;;;-1.95;67.82
35989;BME280;22064;42.672;23.282;2023-02-08T13:01:12;96478.75;;;-1.87;68.40
35989;BME280;22064;42.672;23.282;2023-02-08T13:06:38;96484.94;;;-1.90;66.68
35989;BME280;22064;42.672;23.282;2023-02-08T13:17:02;96501.25;;;-1.70;64.96
35989;BME280;22064;42.672;23.282;2023-02-08T13:19:41;96499.81;;;-1.51;64.09
35989;BME280;22064;42.672;23.282;2023-02-08T13:22:13;96496.88;;;-1.47;62.49
35989;BME280;22064;42.672;23.282;2023-02-08T13:24:43;96503.00;;;-1.38;61.54
35989;BME280;22064;42.672;23.282;2023-02-08T13:27:14;96498.66;;;-1.26;61.54
35989;BME280;22064;42.672;23.282;2023-02-08T13:29:44;96496.19;;;-1.17;59.38
35989;BME280;22064;42.672;23.282;2023-02-08T13:34:59;96495.03;;;-1.45;59.69
35989;BME280;22064;42.672;23.282;2023-02-08T13:37:28;96503.38;;;-1.43;60.55
35989;BME280;22064;42.672;23.282;2023-02-08T13:42:47;96509.66;;;-1.47;60.49
35989;BME280;22064;42.672;23.282;2023-02-08T13:45:27;96516.03;;;-1.41;60.51
35989;BME280;22064;42.672;23.282;2023-02-08T13:47:57;96503.66;;;-1.57;62.25
35989;BME280;22064;42.672;23.282;2023-02-08T13:50:48;96508.81;;;-1.36;63.12
35989;BME280;22064;42.672;23.282;2023-02-08T13:53:15;96509.06;;;-1.39;61.30
35989;BME280;22064;42.672;23.282;2023-02-08T13:55:59;96508.56;;;-1.65;62.67
35989;BME280;22064;42.672;23.282;2023-02-08T13:58:33;96488.50;;;-1.81;62.99
35989;BME280;22064;42.672;23.282;2023-02-08T14:01:07;96520.31;;;-1.74;65.73
35989;BME280;22064;42.672;23.282;2023-02-08T14:03:40;96516.16;;;-1.86;66.42
35989;BME280;22064;42.672;23.282;2023-02-08T14:06:16;96518.38;;;-2.04;69.57
35989;BME280;22064;42.672;23.282;2023-02-08T14:11:20;96523.38;;;-2.36;70.92
35989;BME280;22064;42.672;23.282;2023-02-08T14:13:55;96530.91;;;-2.35;71.06
35989;BME280;22064;42.672;23.282;2023-02-08T14:16:42;96523.16;;;-2.33;72.45
35989;BME280;22064;42.672;23.282;2023-02-08T14:21:46;96522.56;;;-2.25;77.14
35989;BME280;22064;42.672;23.282;2023-02-08T14:24:31;96520.34;;;-2.52;76.93
35989;BME280;22064;42.672;23.282;2023-02-08T14:32:44;96526.59;;;-2.68;87.20
35989;BME280;22064;42.672;23.282;2023-02-08T14:37:41;96527.19;;;-2.53;90.87
35989;BME280;22064;42.672;23.282;2023-02-08T14:45:33;96531.50;;;-2.42;89.97
35989;BME280;22064;42.672;23.282;2023-02-08T14:50:38;96533.69;;;-2.49;90.71
35989;BME280;22064;42.672;23.282;2023-02-08T14:55:45;96539.09;;;-2.76;92.67
35989;BME280;22064;42.672;23.282;2023-02-08T14:58:16;96525.09;;;-3.06;98.71
35989;BME280;22064;42.672;23.282;2023-02-08T15:00:50;96550.78;;;-3.20;100.00
35989;BME280;22064;42.672;23.282;2023-02-08T15:03:17;96546.56;;;-3.32;100.00
35989;BME280;22064;42.672;23.282;2023-02-08T15:08:38;96546.66;;;-3.34;100.00
35989;BME280;22064;42.672;23.282;2023-02-08T15:11:04;96543.28;;;-3.34;100.00
35989;BME280;22064;42.672;23.282;2023-02-08T15:13:30;96551.38;;;-3.40;100.00
35989;BME280;22064;42.672;23.282;2023-02-08T15:15:57;96542.47;;;-3.59;100.00
35989;BME280;22064;42.672;23.282;2023-02-08T15:18:28;96540.56;;;-3.68;100.00
35989;BME280;22064;42.672;23.282;2023-02-08T15:21:03;96546.94;;;-3.86;100.00
35989;BME280;22064;42.672;23.282;2023-02-08T15:23:29;96567.00;;;-3.82;100.00
35989;BME280;22064;42.672;23.282;2023-02-08T15:25:58;96550.41;;;-3.87;100.00
35989;BME280;22064;42.672;23.282;2023-02-08T15:28:27;96559.19;;;-3.91;100.00
35989;BME280;22064;42.672;23.282;2023-02-08T15:33:23;96557.31;;;-3.89;100.00
35989;BME280;22064;42.672;23.282;2023-02-08T15:36:04;96558.47;;;-3.93;100.00
35989;BME280;22064;42.672;23.282;2023-02-08T15:38:31;96562.16;;;-3.98;100.00